Ct Longford — 9HYM9 — position and weather

sailwx.info

Track history (hours):
 
Tides and Currents Weather Stations Pressure Air Temp Water Temp Dewpoint Dewpoint Depression Visibility Wind Speed Wind Dir Waves Ship Positions

Ct Longford

Last reported at 2015-May-24 00:27 UTC. Time now 2015-May-30 20:40 UTC.
Position N 17°08' W 063°26'.

Length 117 m; draft 5.8 m.

Type: Tanker. MMSI: 249706000.

Date/timePositionNaut miles runAvg speedWind from/ knotsBaromVisibWave heightAir tempDewpointWater temp
2015-May-24 00:27N 17°08' W 063°26'46 1.2
2015-May-22 10:16N 16°54' W 062°40'811.3
2015-May-22 09:32N 16°47' W 062°36'1111.4
2015-May-22 08:33N 16°37' W 062°30'1111.2
2015-May-22 07:33N 16°27' W 062°24'1311.0
2015-May-22 06:23N 16°16' W 062°16'5911.8
2015-May-22 01:25N 15°26' W 061°45'1112.0
2015-May-22 00:29N 15°17' W 061°39'2510.7
2015-May-21 22:06N 14°54' W 061°27'611.2
2015-May-21 21:33N 14°49' W 061°23'1212.3
2015-May-21 20:33N 14°39' W 061°16'1212.1
2015-May-21 19:33N 14°28' W 061°09'1211.6
2015-May-21 18:33N 14°21' W 061°00'1211.8
2015-May-21 17:33N 14°14' W 060°51'1211.9
2015-May-21 16:31N 14°06' W 060°41'  
2015-May-18 14:24N 14°02' W 060°39'7 7.8
2015-May-18 13:34N 14°07' W 060°43'9 8.8
2015-May-18 12:33N 14°12' W 060°51'1010.2
2015-May-18 11:33N 14°14' W 061°01'1010.4
2015-May-18 10:34N 14°15' W 061°12'1010.0
2015-May-18 09:34N 14°18' W 061°22'9 9.4
2015-May-18 08:33N 14°25' W 061°29'9 9.1
2015-May-18 07:34N 14°31' W 061°36'9 8.7
2015-May-18 06:34N 14°37' W 061°42'  
Track history (hours):
 
Tides and Currents Weather Stations Pressure Air Temp Water Temp Dewpoint Dewpoint Depression Visibility Wind Speed Wind Dir Waves Ship Positions

Ct Longford

Last reported at 2015-May-24 00:27 UTC. Time now 2015-May-30 20:40 UTC.
Position N 17°08' W 063°26'.

Length 117 m; draft 5.8 m.

Type: Tanker. MMSI: 249706000.

Date/timePositionNaut miles runAvg speedWind from/ knotsBaromVisibWave heightAir tempDewpointWater temp
2015-May-24 00:27N 17°08' W 063°26'46 1.2
2015-May-22 10:16N 16°54' W 062°40'811.3
2015-May-22 09:32N 16°47' W 062°36'1111.4
2015-May-22 08:33N 16°37' W 062°30'1111.2
2015-May-22 07:33N 16°27' W 062°24'1311.0
2015-May-22 06:23N 16°16' W 062°16'5911.8
2015-May-22 01:25N 15°26' W 061°45'1112.0
2015-May-22 00:29N 15°17' W 061°39'2510.7
2015-May-21 22:06N 14°54' W 061°27'611.2
2015-May-21 21:33N 14°49' W 061°23'1212.3
2015-May-21 20:33N 14°39' W 061°16'1212.1
2015-May-21 19:33N 14°28' W 061°09'1211.6
2015-May-21 18:33N 14°21' W 061°00'1211.8
2015-May-21 17:33N 14°14' W 060°51'1211.9
2015-May-21 16:31N 14°06' W 060°41'  
2015-May-18 14:24N 14°02' W 060°39'7 7.8
2015-May-18 13:34N 14°07' W 060°43'9 8.8
2015-May-18 12:33N 14°12' W 060°51'1010.2
2015-May-18 11:33N 14°14' W 061°01'1010.4
2015-May-18 10:34N 14°15' W 061°12'1010.0
2015-May-18 09:34N 14°18' W 061°22'9 9.4
2015-May-18 08:33N 14°25' W 061°29'9 9.1
2015-May-18 07:34N 14°31' W 061°36'9 8.7
2015-May-18 06:34N 14°37' W 061°42'  

Dump ship's entire track history